Time;durP1;ratioP1;P1;durP2;ratioP2;P2;SDS_P1;SDS_P2;PMS_P1;PMS_P2;Temp;Humidity;BMP_temperature;BMP_pressure;BME280_temperature;BME280_humidity;BME280_pressure;Samples;Min_cycle;Max_cycle;Signal;HPM_P1;HPM_P2
2022/12/06 00:02:19;;;;;;;;;;;4.90;99.90;;;;;;4966873;28;1462;-69
2022/12/06 00:04:47;;;;;;;;;;;4.90;99.90;;;;;;4961663;28;1022;-69
2022/12/06 00:07:14;;;;;;;;;;;4.80;99.90;;;;;;4961535;28;1057;-68
2022/12/06 00:09:43;;;;;;;;;;;4.80;99.90;;;;;;4969707;28;1084;-68
2022/12/06 00:12:11;;;;;;;;;;;4.90;99.90;;;;;;4960587;28;1903;-67
2022/12/06 00:14:39;;;;;;;;;;;4.80;99.90;;;;;;4973609;28;1090;-69
2022/12/06 00:17:06;;;;;;;;;;;4.90;99.90;;;;;;4970694;28;1070;-66
2022/12/06 00:19:34;;;;;;;;;;;4.90;99.90;;;;;;4969195;28;1201;-65
2022/12/06 00:22:01;;;;;;;;;;;4.90;99.90;;;;;;4971364;28;1495;-69
2022/12/06 00:24:29;;;;;;;;;;;4.80;99.90;;;;;;4968988;28;959;-67
2022/12/06 00:26:58;;;;;;;;;;;5.00;99.90;;;;;;4967666;28;1097;-68
2022/12/06 00:29:25;;;;;;;;;;;5.00;99.90;;;;;;4968226;28;1156;-68
2022/12/06 00:31:53;;;;;;;;;;;4.90;99.90;;;;;;4968736;28;1907;-66
2022/12/06 00:34:21;;;;;;;;;;;5.00;99.90;;;;;;4967814;28;1274;-67
2022/12/06 00:36:48;;;;;;;;;;;4.90;99.90;;;;;;4960330;28;1140;-66
2022/12/06 00:39:17;;;;;;;;;;;5.00;99.90;;;;;;4959526;28;1166;-67
2022/12/06 00:41:45;;;;;;;;;;;4.80;99.90;;;;;;4969280;28;1172;-68
2022/12/06 00:44:14;;;;;;;;;;;5.00;99.90;;;;;;4963975;28;1601;-68
2022/12/06 00:46:41;;;;;;;;;;;4.80;99.90;;;;;;4965656;28;1126;-67
2022/12/06 00:49:09;;;;;;;;;;;5.00;99.90;;;;;;4966500;28;1276;-68
2022/12/06 00:51:37;;;;;;;;;;;4.90;99.90;;;;;;4966407;28;1989;-67
2022/12/06 00:54:05;;;;;;;;;;;4.80;99.90;;;;;;4964074;28;1273;-66
2022/12/06 00:56:34;;;;;;;;;;;4.90;99.90;;;;;;4970651;28;1106;-66
2022/12/06 00:59:02;;;;;;;;;;;5.00;99.90;;;;;;4960552;28;1076;-67
2022/12/06 01:01:32;;;;;;;;;;;5.00;99.90;;;;;;4961516;28;1490;-66
2022/12/06 01:04:01;;;;;;;;;;;5.00;99.90;;;;;;4968390;28;1422;-67
2022/12/06 01:06:29;;;;;;;;;;;5.00;99.90;;;;;;4968597;28;1010;-67
2022/12/06 01:08:58;;;;;;;;;;;4.90;99.90;;;;;;4959302;28;1090;-66
2022/12/06 01:11:27;;;;;;;;;;;5.00;99.90;;;;;;4969196;28;1980;-67
2022/12/06 01:13:55;;;;;;;;;;;5.00;99.90;;;;;;4966971;28;1629;-68
2022/12/06 01:16:25;;;;;;;;;;;4.90;99.90;;;;;;4963672;28;1011;-69
2022/12/06 01:18:54;;;;;;;;;;;5.00;99.90;;;;;;4964041;28;995;-68
2022/12/06 01:21:22;;;;;;;;;;;5.10;99.90;;;;;;4963266;28;1148;-69
2022/12/06 01:23:50;;;;;;;;;;;5.00;99.90;;;;;;4960887;28;1387;-68
2022/12/06 01:26:19;;;;;;;;;;;5.00;99.90;;;;;;4965005;28;1305;-68
2022/12/06 01:28:46;;;;;;;;;;;5.10;99.90;;;;;;4963020;28;1075;-69
2022/12/06 01:31:15;;;;;;;;;;;4.90;99.90;;;;;;4959417;28;1100;-68
2022/12/06 01:33:43;;;;;;;;;;;5.00;99.90;;;;;;4961823;28;1914;-68
2022/12/06 01:36:16;;;;;;;;;;;4.90;99.90;;;;;;4959875;28;1299;-68
2022/12/06 01:38:44;;;;;;;;;;;5.00;99.90;;;;;;4958786;28;1521;-67
2022/12/06 01:41:12;;;;;;;;;;;5.00;99.90;;;;;;4967924;28;1709;-69
2022/12/06 01:43:41;;;;;;;;;;;4.90;99.90;;;;;;4959519;28;1307;-69
2022/12/06 01:46:17;;;;;;;;;;;5.00;99.90;;;;;;4964675;28;2014;-67
2022/12/06 01:48:45;;;;;;;;;;;5.00;99.90;;;;;;4966039;28;1680;-67
2022/12/06 01:51:14;;;;;;;;;;;5.00;99.90;;;;;;4964370;28;1129;-67
2022/12/06 01:53:44;;;;;;;;;;;4.90;99.90;;;;;;4965118;28;1903;-67
2022/12/06 01:56:12;;;;;;;;;;;5.00;99.90;;;;;;4966437;28;1114;-67
2022/12/06 01:58:41;;;;;;;;;;;5.10;99.90;;;;;;4964556;28;1311;-66
2022/12/06 02:01:09;;;;;;;;;;;5.20;99.90;;;;;;4969509;28;966;-67
2022/12/06 02:03:37;;;;;;;;;;;5.20;99.90;;;;;;4965228;28;1803;-67
2022/12/06 02:06:06;;;;;;;;;;;5.10;99.90;;;;;;4965332;28;1281;-67
2022/12/06 02:08:34;;;;;;;;;;;5.10;99.90;;;;;;4958959;28;1179;-66
2022/12/06 02:11:03;;;;;;;;;;;5.10;99.90;;;;;;4959326;28;999;-66
2022/12/06 02:19:46;;;;;;;;;;;5.10;99.90;;;;;;5011901;28;1033;-68
2022/12/06 02:22:17;;;;;;;;;;;5.10;99.90;;;;;;5013098;28;1252;-68
2022/12/06 02:24:58;;;;;;;;;;;5.00;99.90;;;;;;5014053;28;1120;-68
2022/12/06 02:27:44;;;;;;;;;;;5.10;99.90;;;;;;5013216;28;1008;-68
2022/12/06 02:30:17;;;;;;;;;;;5.10;99.90;;;;;;5013458;28;1088;-68
2022/12/06 02:32:49;;;;;;;;;;;5.20;99.90;;;;;;5013876;28;1906;-67
2022/12/06 02:35:25;;;;;;;;;;;5.30;99.90;;;;;;5013008;28;1156;-67
2022/12/06 02:37:55;;;;;;;;;;;5.20;99.90;;;;;;5013360;28;1145;-68
2022/12/06 02:40:25;;;;;;;;;;;5.20;99.90;;;;;;5013232;28;1074;-68
2022/12/06 02:42:55;;;;;;;;;;;5.20;99.90;;;;;;5013342;28;1303;-67
2022/12/06 02:45:25;;;;;;;;;;;5.30;99.90;;;;;;5013727;28;1074;-68
2022/12/06 02:47:55;;;;;;;;;;;5.30;99.90;;;;;;5013196;28;967;-68
2022/12/06 02:50:26;;;;;;;;;;;5.40;99.90;;;;;;5013509;28;1137;-67
2022/12/06 02:52:54;;;;;;;;;;;5.40;99.90;;;;;;5013351;28;2005;-69
2022/12/06 02:55:22;;;;;;;;;;;5.30;99.90;;;;;;5013189;28;1281;-67
2022/12/06 02:57:50;;;;;;;;;;;5.20;99.90;;;;;;5011527;28;1006;-68
2022/12/06 03:00:28;;;;;;;;;;;5.20;99.90;;;;;;5013358;28;1010;-67
2022/12/06 03:03:03;;;;;;;;;;;5.20;99.90;;;;;;5013279;28;1299;-67
2022/12/06 03:05:33;;;;;;;;;;;5.20;99.90;;;;;;5014157;28;1080;-68
2022/12/06 03:08:05;;;;;;;;;;;5.20;99.90;;;;;;5013706;28;1027;-69
2022/12/06 03:10:39;;;;;;;;;;;5.20;99.90;;;;;;5012156;28;1129;-67
2022/12/06 03:13:12;;;;;;;;;;;5.20;99.90;;;;;;5019069;28;1988;-67
2022/12/06 03:15:45;;;;;;;;;;;5.20;99.90;;;;;;5019687;28;1048;-69
2022/12/06 03:18:18;;;;;;;;;;;5.30;99.90;;;;;;5018292;28;1501;-68
2022/12/06 03:20:47;;;;;;;;;;;5.40;99.90;;;;;;5018443;28;1042;-69
2022/12/06 03:23:18;;;;;;;;;;;5.40;99.90;;;;;;5019721;28;1281;-68
2022/12/06 03:25:46;;;;;;;;;;;5.30;99.90;;;;;;5019531;28;1120;-67
2022/12/06 03:28:15;;;;;;;;;;;5.40;99.90;;;;;;5019175;28;1093;-68
2022/12/06 03:30:45;;;;;;;;;;;5.40;99.90;;;;;;5019764;28;1021;-67
2022/12/06 03:33:14;;;;;;;;;;;5.60;99.90;;;;;;5019150;28;1910;-67
2022/12/06 03:35:44;;;;;;;;;;;5.50;99.90;;;;;;5019203;28;1316;-67
2022/12/06 03:38:14;;;;;;;;;;;5.60;99.90;;;;;;5019582;28;1014;-68
2022/12/06 03:40:44;;;;;;;;;;;5.60;99.90;;;;;;5018931;28;1152;-68
2022/12/06 03:43:12;;;;;;;;;;;5.70;99.90;;;;;;5019739;28;1364;-67
2022/12/06 03:45:42;;;;;;;;;;;5.30;99.90;;;;;;5020222;28;1089;-67
2022/12/06 03:48:11;;;;;;;;;;;5.40;99.90;;;;;;5023693;28;1054;-71
2022/12/06 03:50:40;;;;;;;;;;;5.40;99.90;;;;;;5019089;28;1681;-69
2022/12/06 03:53:09;;;;;;;;;;;5.70;99.90;;;;;;5017769;28;1915;-70
2022/12/06 03:55:37;;;;;;;;;;;5.30;99.90;;;;;;5019590;28;1667;-69
2022/12/06 03:58:04;;;;;;;;;;;5.30;99.90;;;;;;5019018;28;1600;-70
2022/12/06 04:00:32;;;;;;;;;;;5.40;99.90;;;;;;5018828;28;1502;-69
2022/12/06 04:03:00;;;;;;;;;;;5.50;99.90;;;;;;5019302;28;1351;-69
2022/12/06 04:05:27;;;;;;;;;;;5.40;99.90;;;;;;5019308;28;1024;-69
2022/12/06 04:07:55;;;;;;;;;;;5.30;99.90;;;;;;5019121;28;1429;-69
2022/12/06 04:10:24;;;;;;;;;;;5.60;99.90;;;;;;5019800;28;1069;-69
2022/12/06 04:13:00;;;;;;;;;;;5.50;99.90;;;;;;5018699;28;1296;-68
2022/12/06 04:15:28;;;;;;;;;;;5.60;99.90;;;;;;5019499;28;1102;-69
2022/12/06 04:18:12;;;;;;;;;;;5.50;99.90;;;;;;5026386;28;1566;-69
2022/12/06 04:23:22;;;;;;;;;;;5.40;99.90;;;;;;4993551;28;1322;-70
2022/12/06 04:25:51;;;;;;;;;;;5.40;99.90;;;;;;5015196;28;1093;-70
2022/12/06 04:39:20;;;;;;;;;;;5.20;99.90;;;;;;5015681;28;1591;-70
2022/12/06 04:44:34;;;;;;;;;;;5.40;99.90;;;;;;5015060;28;1094;-70
2022/12/06 04:47:02;;;;;;;;;;;5.30;99.90;;;;;;5015352;28;1011;-70
2022/12/06 04:49:29;;;;;;;;;;;5.40;99.90;;;;;;5015191;28;1487;-70
2022/12/06 04:51:57;;;;;;;;;;;5.40;99.90;;;;;;5015554;28;1061;-70
2022/12/06 04:54:25;;;;;;;;;;;5.30;99.90;;;;;;5014833;28;1890;-70
2022/12/06 04:56:54;;;;;;;;;;;5.40;99.90;;;;;;5015113;28;1098;-70
2022/12/06 04:59:22;;;;;;;;;;;5.20;99.90;;;;;;5015400;28;1049;-69
2022/12/06 05:01:50;;;;;;;;;;;5.20;99.90;;;;;;5014859;28;1022;-69
2022/12/06 05:04:17;;;;;;;;;;;5.30;99.90;;;;;;5014975;28;1523;-70
2022/12/06 05:06:45;;;;;;;;;;;5.30;99.90;;;;;;5014724;28;1002;-69
2022/12/06 05:09:13;;;;;;;;;;;5.40;99.90;;;;;;5015340;28;1073;-70
2022/12/06 05:11:41;;;;;;;;;;;5.30;99.90;;;;;;5015075;28;1066;-70
2022/12/06 05:14:10;;;;;;;;;;;5.30;99.90;;;;;;5014996;28;1907;-70
2022/12/06 05:16:37;;;;;;;;;;;5.20;99.90;;;;;;5014486;28;1674;-71
2022/12/06 05:19:05;;;;;;;;;;;5.30;99.90;;;;;;5014005;28;1067;-70
2022/12/06 05:21:33;;;;;;;;;;;5.30;99.90;;;;;;5014916;28;1073;-70
2022/12/06 05:24:00;;;;;;;;;;;5.30;99.90;;;;;;5014791;28;2061;-70
2022/12/06 05:26:28;;;;;;;;;;;5.30;99.90;;;;;;5014558;28;1188;-70
2022/12/06 05:28:56;;;;;;;;;;;5.20;99.90;;;;;;5013910;28;1537;-70
2022/12/06 05:31:26;;;;;;;;;;;5.20;99.90;;;;;;5013930;28;1833;-69
2022/12/06 05:33:53;;;;;;;;;;;5.20;99.90;;;;;;5014451;28;2048;-69
2022/12/06 05:36:22;;;;;;;;;;;5.30;99.90;;;;;;5014602;28;1087;-70
2022/12/06 05:38:50;;;;;;;;;;;5.20;99.90;;;;;;5014098;28;1324;-68
2022/12/06 05:41:18;;;;;;;;;;;5.20;99.90;;;;;;5014915;28;1078;-69
2022/12/06 05:43:46;;;;;;;;;;;5.40;99.90;;;;;;5014213;28;1307;-69
2022/12/06 05:46:14;;;;;;;;;;;5.20;99.90;;;;;;5013263;28;1204;-69
2022/12/06 05:48:43;;;;;;;;;;;5.30;99.90;;;;;;5012435;28;1029;-70
2022/12/06 05:51:11;;;;;;;;;;;5.30;99.90;;;;;;5014968;28;1236;-69
2022/12/06 05:53:39;;;;;;;;;;;5.20;99.90;;;;;;5014391;28;1265;-69
2022/12/06 05:56:08;;;;;;;;;;;5.20;99.90;;;;;;5013617;28;1975;-69
2022/12/06 05:58:36;;;;;;;;;;;5.20;99.90;;;;;;5014490;28;1051;-70
2022/12/06 06:01:04;;;;;;;;;;;5.30;99.90;;;;;;5014987;28;1007;-70
2022/12/06 06:03:32;;;;;;;;;;;5.50;99.90;;;;;;5014052;28;1351;-70
2022/12/06 06:06:01;;;;;;;;;;;5.30;99.90;;;;;;5015496;28;1481;-70
2022/12/06 06:08:29;;;;;;;;;;;5.20;99.90;;;;;;5016904;28;1048;-70
2022/12/06 06:10:58;;;;;;;;;;;5.20;99.90;;;;;;5015352;28;1084;-70
2022/12/06 06:13:26;;;;;;;;;;;5.20;99.90;;;;;;5013826;28;1296;-70
2022/12/06 06:15:54;;;;;;;;;;;5.30;99.90;;;;;;5014505;28;1906;-70
2022/12/06 06:18:22;;;;;;;;;;;5.30;99.90;;;;;;5012254;28;1025;-70
2022/12/06 06:20:51;;;;;;;;;;;5.10;99.90;;;;;;5014293;28;1026;-69
2022/12/06 06:23:20;;;;;;;;;;;5.20;99.90;;;;;;5015460;28;1308;-69
2022/12/06 06:25:48;;;;;;;;;;;5.10;99.90;;;;;;5014170;28;1097;-69
2022/12/06 06:28:15;;;;;;;;;;;5.10;99.90;;;;;;5014108;28;1006;-70
2022/12/06 06:30:43;;;;;;;;;;;5.20;99.90;;;;;;5013757;28;1056;-69
2022/12/06 06:33:11;;;;;;;;;;;5.10;99.90;;;;;;5013712;28;1401;-70
2022/12/06 06:35:39;;;;;;;;;;;5.10;99.90;;;;;;5012124;28;1981;-69
2022/12/06 06:38:07;;;;;;;;;;;5.00;99.90;;;;;;5013181;28;1430;-70
2022/12/06 06:40:36;;;;;;;;;;;4.90;99.90;;;;;;5007948;28;2192;-69
2022/12/06 06:43:17;;;;;;;;;;;5.00;99.90;;;;;;5010244;28;1959;-69
2022/12/06 06:45:45;;;;;;;;;;;4.90;99.90;;;;;;5012352;28;1975;-70
2022/12/06 06:48:13;;;;;;;;;;;4.90;99.90;;;;;;5012070;28;2008;-70
2022/12/06 06:50:41;;;;;;;;;;;5.00;99.90;;;;;;5011689;28;983;-70
2022/12/06 06:53:09;;;;;;;;;;;5.20;99.90;;;;;;5012225;28;1284;-69
2022/12/06 06:55:38;;;;;;;;;;;5.10;99.90;;;;;;5012988;28;1906;-68
2022/12/06 06:58:05;;;;;;;;;;;5.10;99.90;;;;;;5011432;28;1781;-67
2022/12/06 07:00:33;;;;;;;;;;;5.00;99.90;;;;;;5010206;28;2039;-67
2022/12/06 07:03:02;;;;;;;;;;;5.10;99.90;;;;;;5010752;28;2249;-70
2022/12/06 07:05:30;;;;;;;;;;;4.90;99.90;;;;;;5013783;28;1007;-68
2022/12/06 07:07:58;;;;;;;;;;;4.80;99.90;;;;;;5012462;28;1955;-69
2022/12/06 07:10:26;;;;;;;;;;;4.90;99.90;;;;;;5011981;28;1955;-67
2022/12/06 07:12:55;;;;;;;;;;;4.80;99.90;;;;;;5009930;28;1983;-68
2022/12/06 07:15:22;;;;;;;;;;;4.80;99.90;;;;;;5011565;28;1924;-68
2022/12/06 07:17:52;;;;;;;;;;;4.80;99.90;;;;;;5009899;28;1994;-67
2022/12/06 07:20:20;;;;;;;;;;;4.90;99.90;;;;;;5007859;28;1828;-69
2022/12/06 07:22:47;;;;;;;;;;;4.80;99.90;;;;;;5012365;28;1958;-68
2022/12/06 07:25:15;;;;;;;;;;;4.80;99.90;;;;;;5012815;28;1180;-68
2022/12/06 07:27:42;;;;;;;;;;;4.80;99.90;;;;;;5012074;28;1102;-66
2022/12/06 07:30:12;;;;;;;;;;;4.90;99.90;;;;;;5012909;28;1060;-66
2022/12/06 07:32:44;;;;;;;;;;;5.00;99.90;;;;;;5011915;28;1955;-65
2022/12/06 07:35:11;;;;;;;;;;;5.00;99.90;;;;;;5012516;28;1934;-65
2022/12/06 07:37:41;;;;;;;;;;;5.10;99.90;;;;;;5012229;28;1161;-66
2022/12/06 07:40:09;;;;;;;;;;;5.00;99.90;;;;;;5011796;28;1053;-65
2022/12/06 07:45:20;;;;;;;;;;;5.00;99.90;;;;;;4981557;28;1187;-65
2022/12/06 07:47:48;;;;;;;;;;;5.00;99.90;;;;;;5013310;28;1283;-64
2022/12/06 07:50:16;;;;;;;;;;;5.10;99.90;;;;;;5013247;28;1013;-66
2022/12/06 07:52:46;;;;;;;;;;;5.00;99.90;;;;;;5010096;28;1784;-67
2022/12/06 07:55:14;;;;;;;;;;;5.00;99.90;;;;;;5010336;28;2019;-67
2022/12/06 07:57:41;;;;;;;;;;;5.00;99.90;;;;;;5011137;28;1935;-65
2022/12/06 08:00:11;;;;;;;;;;;5.10;99.90;;;;;;5013546;28;2026;-67
2022/12/06 08:02:40;;;;;;;;;;;5.20;99.90;;;;;;5014029;28;1974;-67
2022/12/06 08:05:08;;;;;;;;;;;5.10;99.90;;;;;;5014901;28;1920;-67
2022/12/06 08:07:36;;;;;;;;;;;5.10;99.90;;;;;;5013682;28;1895;-67
2022/12/06 08:10:04;;;;;;;;;;;5.20;99.90;;;;;;5016902;28;1100;-67
2022/12/06 08:12:32;;;;;;;;;;;5.20;99.90;;;;;;5018620;28;1279;-67
2022/12/06 08:15:00;;;;;;;;;;;5.10;99.90;;;;;;5016826;28;1428;-66
2022/12/06 08:17:29;;;;;;;;;;;5.10;99.90;;;;;;5015321;28;1990;-67
2022/12/06 08:19:58;;;;;;;;;;;5.00;99.90;;;;;;5016483;28;1974;-65
2022/12/06 08:22:27;;;;;;;;;;;5.10;99.90;;;;;;5019109;28;1322;-65
2022/12/06 08:24:55;;;;;;;;;;;5.10;99.90;;;;;;5014442;28;1737;-65
2022/12/06 08:27:22;;;;;;;;;;;4.90;99.90;;;;;;5019824;28;1211;-65
2022/12/06 08:29:50;;;;;;;;;;;5.30;99.90;;;;;;5021227;28;1330;-67
2022/12/06 08:32:18;;;;;;;;;;;5.00;99.90;;;;;;5017477;28;1769;-66
2022/12/06 08:34:45;;;;;;;;;;;5.00;99.90;;;;;;5019104;28;1705;-66
2022/12/06 08:37:14;;;;;;;;;;;5.20;99.90;;;;;;5016235;28;1968;-66
2022/12/06 08:39:42;;;;;;;;;;;5.10;99.90;;;;;;5015286;28;1827;-67
2022/12/06 08:42:09;;;;;;;;;;;5.10;99.90;;;;;;5015005;28;1952;-66
2022/12/06 08:44:37;;;;;;;;;;;5.00;99.90;;;;;;5015607;28;1106;-66
2022/12/06 08:47:05;;;;;;;;;;;5.00;99.90;;;;;;5014423;28;1809;-65
2022/12/06 08:49:33;;;;;;;;;;;4.80;99.90;;;;;;5017438;28;1796;-68
2022/12/06 08:52:00;;;;;;;;;;;4.80;99.90;;;;;;5016291;28;1717;-66
2022/12/06 08:54:29;;;;;;;;;;;5.00;99.90;;;;;;5015350;28;1836;-66
2022/12/06 08:56:57;;;;;;;;;;;4.80;99.90;;;;;;5013770;28;1906;-66
2022/12/06 08:59:25;;;;;;;;;;;4.70;99.90;;;;;;5016739;28;2007;-66
2022/12/06 09:01:52;;;;;;;;;;;4.80;99.90;;;;;;5016382;28;1886;-67
2022/12/06 09:04:20;;;;;;;;;;;4.80;99.90;;;;;;5014473;28;2068;-68
2022/12/06 09:06:48;;;;;;;;;;;4.80;99.90;;;;;;5012757;28;1795;-68
2022/12/06 09:09:17;;;;;;;;;;;4.70;99.90;;;;;;5016788;28;1009;-67
2022/12/06 09:11:46;;;;;;;;;;;4.70;99.90;;;;;;5016760;28;1100;-65
2022/12/06 09:14:15;;;;;;;;;;;4.60;99.90;;;;;;5016448;28;1520;-67
2022/12/06 09:16:49;;;;;;;;;;;4.60;99.90;;;;;;5016222;28;2027;-68
2022/12/06 09:19:16;;;;;;;;;;;4.70;99.90;;;;;;5017896;28;1784;-66
2022/12/06 09:21:45;;;;;;;;;;;4.90;99.90;;;;;;5015080;28;2006;-66
2022/12/06 09:24:14;;;;;;;;;;;4.60;99.90;;;;;;5013184;28;2007;-70
2022/12/06 09:26:41;;;;;;;;;;;4.70;99.90;;;;;;5013747;28;1697;-65
2022/12/06 09:29:10;;;;;;;;;;;4.60;99.90;;;;;;5014986;28;1773;-67
2022/12/06 09:31:39;;;;;;;;;;;4.80;99.90;;;;;;5014625;28;2044;-66
2022/12/06 09:34:07;;;;;;;;;;;4.90;99.90;;;;;;5012810;28;1453;-68
2022/12/06 09:36:36;;;;;;;;;;;4.70;99.90;;;;;;5014380;28;1914;-67
2022/12/06 09:39:04;;;;;;;;;;;4.60;99.90;;;;;;5013727;28;1461;-67
2022/12/06 09:41:47;;;;;;;;;;;4.60;99.90;;;;;;5014404;28;1026;-69
2022/12/06 09:44:23;;;;;;;;;;;4.50;99.90;;;;;;5014611;28;1402;-64
2022/12/06 09:46:58;;;;;;;;;;;4.60;99.90;;;;;;5012283;28;2073;-67
2022/12/06 09:49:30;;;;;;;;;;;4.80;99.90;;;;;;5009699;28;2015;-66
2022/12/06 09:52:10;;;;;;;;;;;4.80;99.90;;;;;;5011792;28;1824;-66
2022/12/06 09:54:45;;;;;;;;;;;4.90;99.90;;;;;;5013404;28;1015;-66
2022/12/06 09:57:22;;;;;;;;;;;4.90;99.90;;;;;;5013778;28;1973;-67
2022/12/06 09:59:56;;;;;;;;;;;4.90;99.90;;;;;;5011859;28;1936;-64
2022/12/06 10:02:36;;;;;;;;;;;4.90;99.90;;;;;;5014388;28;1371;-65
2022/12/06 10:05:13;;;;;;;;;;;5.00;99.90;;;;;;5014463;28;1629;-65
2022/12/06 10:07:45;;;;;;;;;;;4.80;99.90;;;;;;5013956;28;1050;-67
2022/12/06 10:10:18;;;;;;;;;;;4.80;99.90;;;;;;5013722;28;1037;-69
2022/12/06 10:12:52;;;;;;;;;;;5.00;99.90;;;;;;5013825;28;1352;-70
2022/12/06 10:15:26;;;;;;;;;;;4.90;99.90;;;;;;5014232;28;1137;-68
2022/12/06 10:18:01;;;;;;;;;;;5.20;99.90;;;;;;5013480;28;1972;-66
2022/12/06 10:20:32;;;;;;;;;;;5.00;99.90;;;;;;5012963;28;1845;-66
2022/12/06 10:23:06;;;;;;;;;;;5.10;99.90;;;;;;5013359;28;1291;-67
2022/12/06 10:25:37;;;;;;;;;;;5.20;99.90;;;;;;5013373;28;1550;-67
2022/12/06 10:28:10;;;;;;;;;;;5.10;99.90;;;;;;5013512;28;1112;-67
2022/12/06 10:30:43;;;;;;;;;;;5.10;99.90;;;;;;5016785;28;1283;-67
2022/12/06 10:33:15;;;;;;;;;;;5.10;99.90;;;;;;5016708;28;1285;-67
2022/12/06 10:35:44;;;;;;;;;;;5.20;99.90;;;;;;5017176;28;1509;-66
2022/12/06 10:38:16;;;;;;;;;;;5.20;99.90;;;;;;5015210;28;1985;-67
2022/12/06 10:40:49;;;;;;;;;;;5.00;99.90;;;;;;5016921;28;1238;-67
2022/12/06 10:43:18;;;;;;;;;;;5.00;99.90;;;;;;5016969;28;1262;-66
2022/12/06 10:48:38;;;;;;;;;;;5.00;99.90;;;;;;5018725;28;1298;-66
2022/12/06 10:51:09;;;;;;;;;;;4.90;99.90;;;;;;5015972;28;1078;-67
2022/12/06 10:53:40;;;;;;;;;;;4.80;99.90;;;;;;5014931;28;1406;-67
2022/12/06 10:56:13;;;;;;;;;;;4.70;99.90;;;;;;5012802;28;1366;-65
2022/12/06 10:58:44;;;;;;;;;;;4.80;99.90;;;;;;5012025;28;1993;-66
2022/12/06 11:01:15;;;;;;;;;;;5.00;99.90;;;;;;5013249;28;990;-65
2022/12/06 11:03:44;;;;;;;;;;;5.20;99.90;;;;;;5012271;28;1439;-65
2022/12/06 11:06:14;;;;;;;;;;;5.20;99.90;;;;;;5012937;28;999;-65
2022/12/06 11:08:43;;;;;;;;;;;5.20;99.90;;;;;;5012608;28;1618;-67
2022/12/06 11:11:14;;;;;;;;;;;5.20;99.90;;;;;;5013146;28;982;-67
2022/12/06 11:13:44;;;;;;;;;;;5.20;99.90;;;;;;5012998;28;1399;-67
2022/12/06 11:16:15;;;;;;;;;;;4.90;99.90;;;;;;5012823;28;1543;-65
2022/12/06 11:18:44;;;;;;;;;;;5.00;99.90;;;;;;5011809;28;1985;-66
2022/12/06 11:21:15;;;;;;;;;;;4.90;99.90;;;;;;5012502;28;1078;-65
2022/12/06 11:23:47;;;;;;;;;;;4.90;99.90;;;;;;5012251;28;1419;-66
2022/12/06 11:26:21;;;;;;;;;;;4.90;99.90;;;;;;5012370;28;1156;-66
2022/12/06 11:28:54;;;;;;;;;;;5.10;99.90;;;;;;5011522;28;1967;-68
2022/12/06 11:31:25;;;;;;;;;;;5.10;99.90;;;;;;5012729;28;1033;-68
2022/12/06 11:33:53;;;;;;;;;;;5.20;99.90;;;;;;5014748;28;1308;-66
2022/12/06 11:36:21;;;;;;;;;;;5.10;99.90;;;;;;5015251;28;966;-67
2022/12/06 11:38:49;;;;;;;;;;;5.40;99.90;;;;;;5015443;28;1995;-67
2022/12/06 11:41:18;;;;;;;;;;;5.10;99.90;;;;;;5016505;28;1094;-67
2022/12/06 11:43:46;;;;;;;;;;;5.00;99.90;;;;;;5016394;28;1362;-67
2022/12/06 11:46:14;;;;;;;;;;;5.10;99.90;;;;;;5015987;28;1083;-68
2022/12/06 11:48:44;;;;;;;;;;;5.00;99.90;;;;;;5016395;28;1011;-67
2022/12/06 11:51:16;;;;;;;;;;;4.80;99.90;;;;;;5016548;28;1084;-67
2022/12/06 11:53:48;;;;;;;;;;;4.80;99.90;;;;;;5015885;28;1292;-68
2022/12/06 11:56:20;;;;;;;;;;;4.90;99.90;;;;;;5015438;28;1071;-65
2022/12/06 11:58:57;;;;;;;;;;;5.00;99.90;;;;;;5015637;28;1915;-68
2022/12/06 12:01:36;;;;;;;;;;;4.80;99.90;;;;;;5016678;28;1505;-67
2022/12/06 12:04:22;;;;;;;;;;;4.70;99.90;;;;;;5015797;28;1332;-69
2022/12/06 12:06:51;;;;;;;;;;;4.80;99.90;;;;;;5015193;28;1015;-69
2022/12/06 12:09:19;;;;;;;;;;;4.60;99.90;;;;;;5016388;28;1101;-68
2022/12/06 12:11:54;;;;;;;;;;;4.60;99.90;;;;;;5015513;28;947;-68
2022/12/06 12:14:25;;;;;;;;;;;4.70;99.90;;;;;;5012334;28;1495;-66
2022/12/06 12:16:56;;;;;;;;;;;4.70;99.90;;;;;;5012102;28;1662;-67
2022/12/06 12:19:30;;;;;;;;;;;4.80;99.90;;;;;;5017987;28;2235;-68
2022/12/06 12:21:59;;;;;;;;;;;4.80;99.90;;;;;;5013679;28;1686;-68
2022/12/06 12:24:47;;;;;;;;;;;4.80;99.90;;;;;;5015261;28;1683;-67
2022/12/06 12:27:41;;;;;;;;;;;4.80;99.90;;;;;;5018524;28;1110;-66
2022/12/06 12:30:25;;;;;;;;;;;4.80;99.90;;;;;;5015777;28;1038;-68
2022/12/06 12:33:08;;;;;;;;;;;4.60;99.90;;;;;;5015998;28;1259;-67
2022/12/06 12:35:38;;;;;;;;;;;4.50;99.90;;;;;;5015841;28;1060;-70
2022/12/06 12:38:13;;;;;;;;;;;4.60;99.90;;;;;;5015163;28;1910;-69
2022/12/06 12:40:41;;;;;;;;;;;4.50;99.90;;;;;;5015765;28;1105;-68
2022/12/06 12:43:15;;;;;;;;;;;4.60;99.90;;;;;;5019682;28;1895;-70
2022/12/06 12:45:57;;;;;;;;;;;4.60;99.90;;;;;;5015507;28;1002;-69
2022/12/06 12:48:29;;;;;;;;;;;5.00;99.90;;;;;;5015230;28;1304;-69
2022/12/06 12:50:59;;;;;;;;;;;4.60;99.90;;;;;;5014438;28;1738;-68
2022/12/06 12:53:28;;;;;;;;;;;4.60;99.90;;;;;;5009530;28;1569;-68
2022/12/06 12:56:05;;;;;;;;;;;4.50;99.90;;;;;;5014578;28;1020;-68
2022/12/06 12:58:33;;;;;;;;;;;4.40;99.90;;;;;;5014212;28;1915;-69
2022/12/06 13:01:05;;;;;;;;;;;4.60;99.90;;;;;;5014815;28;2488;-69
2022/12/06 13:03:34;;;;;;;;;;;4.70;99.90;;;;;;5014696;28;1358;-68
2022/12/06 13:06:27;;;;;;;;;;;4.50;99.90;;;;;;5015157;28;960;-69
2022/12/06 13:08:56;;;;;;;;;;;4.50;99.90;;;;;;5016385;28;1587;-67
2022/12/06 13:11:24;;;;;;;;;;;4.50;99.90;;;;;;5015779;28;1650;-68
2022/12/06 13:13:55;;;;;;;;;;;4.80;99.90;;;;;;5017611;28;1326;-69
2022/12/06 13:16:25;;;;;;;;;;;4.50;99.90;;;;;;5017011;28;1141;-69
2022/12/06 13:18:55;;;;;;;;;;;4.60;99.90;;;;;;5018186;28;1910;-69
2022/12/06 13:21:26;;;;;;;;;;;4.60;99.90;;;;;;5017110;28;1140;-70
2022/12/06 13:24:06;;;;;;;;;;;4.50;99.90;;;;;;5016241;28;1460;-71
2022/12/06 13:26:34;;;;;;;;;;;4.50;99.90;;;;;;5017134;28;1156;-72
2022/12/06 13:29:04;;;;;;;;;;;4.50;99.90;;;;;;5016371;28;1726;-71
2022/12/06 13:31:35;;;;;;;;;;;4.50;99.90;;;;;;5016037;28;1511;-72
2022/12/06 13:34:04;;;;;;;;;;;4.40;99.90;;;;;;5016149;28;1468;-65
2022/12/06 13:36:34;;;;;;;;;;;4.50;99.90;;;;;;5013966;28;1538;-66
2022/12/06 13:39:25;;;;;;;;;;;4.60;99.90;;;;;;5012541;28;1906;-67
2022/12/06 13:44:40;;;;;;;;;;;4.70;99.10;;;;;;5011223;28;1729;-67
2022/12/06 13:47:26;;;;;;;;;;;4.60;99.20;;;;;;5013984;28;1555;-67
2022/12/06 13:49:54;;;;;;;;;;;4.50;99.40;;;;;;5013718;28;1737;-67
2022/12/06 13:52:37;;;;;;;;;;;4.50;99.20;;;;;;5011118;28;1662;-67
2022/12/06 13:55:19;;;;;;;;;;;4.50;99.10;;;;;;5011282;28;1307;-66
2022/12/06 13:57:48;;;;;;;;;;;4.50;98.90;;;;;;5009435;28;1674;-68
2022/12/06 14:00:32;;;;;;;;;;;4.70;99.10;;;;;;5012080;28;1979;-66
2022/12/06 14:03:01;;;;;;;;;;;4.70;98.30;;;;;;5010065;28;1869;-67
2022/12/06 14:05:47;;;;;;;;;;;4.70;98.40;;;;;;5012033;28;1022;-65
2022/12/06 14:08:15;;;;;;;;;;;4.70;98.00;;;;;;5011540;28;1695;-67
2022/12/06 14:10:43;;;;;;;;;;;4.70;98.00;;;;;;5011727;28;1687;-67
2022/12/06 14:13:16;;;;;;;;;;;4.70;98.30;;;;;;5010129;28;1520;-67
2022/12/06 14:15:48;;;;;;;;;;;4.80;97.90;;;;;;5011043;28;1674;-64
2022/12/06 14:18:18;;;;;;;;;;;4.70;98.10;;;;;;5011803;28;1742;-66
2022/12/06 14:20:47;;;;;;;;;;;4.70;98.00;;;;;;5012725;28;1666;-68
2022/12/06 14:23:25;;;;;;;;;;;4.80;97.70;;;;;;5011947;28;1729;-67
2022/12/06 14:26:08;;;;;;;;;;;4.80;97.60;;;;;;5013730;28;1113;-67
2022/12/06 14:28:37;;;;;;;;;;;4.70;98.30;;;;;;5013768;28;1654;-67
2022/12/06 14:31:05;;;;;;;;;;;4.70;97.80;;;;;;5014483;28;1682;-67
2022/12/06 14:33:33;;;;;;;;;;;4.70;97.40;;;;;;5016867;28;1339;-66
2022/12/06 14:36:00;;;;;;;;;;;4.60;97.70;;;;;;5016314;28;1144;-66
2022/12/06 14:38:29;;;;;;;;;;;4.60;97.50;;;;;;5017480;28;1147;-68
2022/12/06 14:43:47;;;;;;;;;;;4.60;98.00;;;;;;5017962;28;1437;-67
2022/12/06 14:46:15;;;;;;;;;;;4.60;97.90;;;;;;5025661;28;1136;-67
2022/12/06 14:51:35;;;;;;;;;;;4.80;97.50;;;;;;5014471;28;1609;-66
2022/12/06 14:54:15;;;;;;;;;;;4.80;97.80;;;;;;5017197;28;1443;-67
2022/12/06 14:56:44;;;;;;;;;;;4.70;98.10;;;;;;5018464;28;1297;-67
2022/12/06 14:59:17;;;;;;;;;;;4.80;95.80;;;;;;5023418;28;1891;-65
2022/12/06 15:02:20;;;;;;;;;;;4.80;96.00;;;;;;5022390;28;1707;-64
2022/12/06 15:04:48;;;;;;;;;;;4.80;96.50;;;;;;5025580;28;1112;-68
2022/12/06 15:07:30;;;;;;;;;;;4.70;95.40;;;;;;5027393;28;1108;-67
2022/12/06 15:10:07;;;;;;;;;;;4.70;95.60;;;;;;5027949;28;1527;-66
2022/12/06 15:15:32;;;;;;;;;;;4.70;95.40;;;;;;5023344;28;1064;-65
2022/12/06 15:18:03;;;;;;;;;;;4.80;95.50;;;;;;5026048;28;1455;-67
2022/12/06 15:20:31;;;;;;;;;;;4.70;96.10;;;;;;5025732;28;1915;-68
2022/12/06 15:22:58;;;;;;;;;;;4.80;96.00;;;;;;5029885;28;1354;-67
2022/12/06 15:25:26;;;;;;;;;;;4.80;95.70;;;;;;5027724;28;1100;-68
2022/12/06 15:27:53;;;;;;;;;;;4.70;94.10;;;;;;5023645;28;1362;-67
2022/12/06 15:30:21;;;;;;;;;;;4.50;94.60;;;;;;5022960;28;1100;-69
2022/12/06 15:32:50;;;;;;;;;;;4.50;92.90;;;;;;5014695;28;1491;-67
2022/12/06 15:35:18;;;;;;;;;;;4.60;92.60;;;;;;5013726;28;987;-66
2022/12/06 15:37:46;;;;;;;;;;;4.50;92.90;;;;;;5013343;28;1221;-70
2022/12/06 15:40:17;;;;;;;;;;;4.40;93.20;;;;;;5014264;28;1980;-68
2022/12/06 15:42:46;;;;;;;;;;;4.80;93.60;;;;;;5014188;28;1354;-68